createdAt,value
2022-08-03T00:00:42.222Z,20.45
2022-08-03T00:03:11.005Z,17.10
2022-08-03T00:05:40.013Z,11.95
2022-08-03T00:08:28.715Z,11.35
2022-08-03T00:10:57.040Z,10.07
2022-08-03T00:13:25.322Z,10.50
2022-08-03T00:15:53.861Z,13.70
2022-08-03T00:18:22.372Z,10.90
2022-08-03T00:20:50.758Z,10.82
2022-08-03T00:23:19.319Z,11.82
2022-08-03T00:25:47.579Z,12.82
2022-08-03T00:28:15.918Z,11.52
2022-08-03T00:30:44.407Z,11.73
2022-08-03T00:33:12.838Z,12.40
2022-08-03T00:35:50.613Z,12.23
2022-08-03T00:38:21.109Z,11.13
2022-08-03T00:40:49.730Z,10.85
2022-08-03T00:43:19.148Z,11.73
2022-08-03T00:48:29.414Z,12.65
2022-08-03T00:51:02.517Z,11.23
2022-08-03T00:53:31.506Z,11.95
2022-08-03T00:56:00.127Z,10.85
2022-08-03T00:58:28.918Z,12.45
2022-08-03T01:00:56.951Z,10.48
2022-08-03T01:03:25.237Z,11.60
2022-08-03T01:06:01.166Z,13.05
2022-08-03T01:08:55.976Z,11.07
2022-08-03T01:11:59.996Z,13.15
2022-08-03T01:14:57.299Z,13.10
2022-08-03T01:18:00.114Z,11.23
2022-08-03T01:20:35.900Z,12.68
2022-08-03T01:23:28.758Z,12.88
2022-08-03T01:26:09.561Z,11.23
2022-08-03T01:28:57.038Z,11.23
2022-08-03T01:33:00.026Z,12.38
2022-08-03T01:34:52.354Z,10.65
2022-08-03T01:37:27.182Z,12.90
2022-08-03T01:39:57.877Z,10.68
2022-08-03T01:42:27.861Z,12.43
2022-08-03T01:44:59.638Z,11.18
2022-08-03T01:47:29.857Z,11.60
2022-08-03T01:50:01.060Z,10.57
2022-08-03T01:52:31.653Z,12.75
2022-08-03T01:55:03.535Z,11.45
2022-08-03T01:57:31.893Z,11.73
2022-08-03T02:00:02.189Z,11.48
2022-08-03T02:02:41.609Z,11.05
2022-08-03T02:05:12.445Z,13.98
2022-08-03T02:07:42.462Z,11.68
2022-08-03T02:10:13.866Z,12.02
2022-08-03T02:12:46.157Z,10.73
2022-08-03T02:15:16.407Z,11.90
2022-08-03T02:17:47.773Z,11.27
2022-08-03T02:20:17.702Z,11.93
2022-08-03T02:22:47.746Z,11.98
2022-08-03T02:27:53.518Z,13.10
2022-08-03T02:30:25.920Z,10.75
2022-08-03T02:32:58.330Z,12.70
2022-08-03T02:35:29.581Z,13.18
2022-08-03T02:38:02.818Z,10.43
2022-08-03T02:40:34.496Z,14.43
2022-08-03T02:43:12.321Z,10.57
2022-08-03T02:45:46.110Z,13.52
2022-08-03T02:48:19.143Z,12.18
2022-08-03T02:50:48.810Z,12.57
2022-08-03T02:53:18.719Z,14.98
2022-08-03T02:55:49.629Z,12.80
2022-08-03T03:00:54.286Z,13.73
2022-08-03T03:03:23.889Z,13.65
2022-08-03T03:05:57.773Z,14.15
2022-08-03T03:08:28.889Z,13.55
2022-08-03T03:11:00.930Z,12.98
2022-08-03T03:13:30.795Z,11.95
2022-08-03T03:16:03.101Z,13.65
2022-08-03T03:18:35.603Z,13.65
2022-08-03T03:21:05.348Z,15.50
2022-08-03T03:23:37.451Z,13.82
2022-08-03T03:26:07.463Z,14.15
2022-08-03T03:28:40.228Z,13.35
2022-08-03T03:31:10.246Z,14.77
2022-08-03T03:33:39.041Z,13.20
2022-08-03T03:36:08.260Z,13.40
2022-08-03T03:38:37.336Z,14.50
2022-08-03T03:41:06.186Z,14.25
2022-08-03T03:43:34.725Z,13.38
2022-08-03T03:46:03.844Z,13.05
2022-08-03T03:48:32.315Z,13.27
2022-08-03T03:51:01.685Z,15.00
2022-08-03T03:56:01.927Z,14.20
2022-08-03T03:58:33.253Z,13.68
2022-08-03T04:01:01.873Z,14.07
2022-08-03T04:03:30.368Z,12.95
2022-08-03T04:06:17.917Z,17.02
2022-08-03T04:09:04.564Z,14.10
2022-08-03T04:11:42.220Z,14.13
2022-08-03T04:14:18.341Z,15.55
2022-08-03T04:17:00.161Z,14.77
2022-08-03T04:19:49.581Z,14.45
2022-08-03T04:22:27.430Z,14.70
2022-08-03T04:25:05.837Z,14.93
2022-08-03T04:27:38.756Z,13.52
2022-08-03T04:30:08.066Z,14.00
2022-08-03T04:35:07.393Z,14.20
2022-08-03T04:37:48.123Z,13.70
2022-08-03T04:40:23.629Z,14.80
2022-08-03T04:42:59.520Z,13.18
2022-08-03T04:45:29.783Z,13.90
2022-08-03T04:47:58.795Z,14.65
2022-08-03T04:50:32.187Z,14.75
2022-08-03T04:53:07.488Z,14.23
2022-08-03T04:58:05.052Z,14.10
2022-08-03T05:00:33.291Z,13.63
2022-08-03T05:03:01.995Z,13.43
2022-08-03T05:05:49.481Z,14.30
2022-08-03T05:08:20.585Z,13.45
2022-08-03T05:10:59.402Z,14.32
2022-08-03T05:13:28.144Z,13.00
2022-08-03T05:15:56.314Z,13.18
2022-08-03T05:18:24.447Z,15.55
2022-08-03T05:20:53.241Z,13.68
2022-08-03T05:23:21.645Z,13.88
2022-08-03T05:25:50.483Z,13.10
2022-08-03T05:28:19.298Z,13.20
2022-08-03T05:30:47.812Z,12.88
2022-08-03T05:33:16.212Z,12.68
2022-08-03T05:35:57.788Z,12.63
2022-08-03T05:38:34.994Z,12.07
2022-08-03T05:41:22.973Z,12.27
2022-08-03T05:43:54.436Z,13.70
2022-08-03T05:46:23.638Z,14.80
2022-08-03T05:48:52.769Z,12.55
2022-08-03T05:51:21.416Z,11.68
2022-08-03T05:53:50.416Z,11.70
2022-08-03T05:56:21.949Z,11.75
2022-08-03T05:58:50.516Z,12.00
2022-08-03T06:01:22.081Z,11.80
2022-08-03T06:03:52.500Z,11.98
2022-08-03T06:06:21.147Z,12.27
2022-08-03T06:08:49.591Z,11.82
2022-08-03T06:11:18.179Z,11.32
2022-08-03T06:13:46.824Z,9.63
2022-08-03T06:16:33.594Z,9.80
2022-08-03T06:19:21.361Z,10.85
2022-08-03T06:21:49.695Z,9.60
2022-08-03T06:24:19.937Z,10.43
2022-08-03T06:26:54.004Z,10.90
2022-08-03T06:29:22.434Z,12.13
2022-08-03T06:32:09.391Z,9.45
2022-08-03T06:34:38.059Z,9.85
2022-08-03T06:37:06.303Z,9.10
2022-08-03T06:39:35.117Z,7.55
2022-08-03T06:42:04.488Z,8.50
2022-08-03T06:44:32.724Z,9.13
2022-08-03T06:47:01.103Z,8.60
2022-08-03T06:49:29.788Z,7.65
2022-08-03T06:52:03.798Z,6.32
2022-08-03T06:54:35.763Z,7.88
2022-08-03T06:57:04.381Z,7.50
2022-08-03T07:00:09.004Z,8.02
2022-08-03T07:02:21.511Z,10.13
2022-08-03T07:04:49.891Z,9.55
2022-08-03T07:07:19.572Z,8.32
2022-08-03T07:09:57.115Z,7.80
2022-08-03T07:12:30.392Z,6.53
2022-08-03T07:15:01.921Z,7.38
2022-08-03T07:17:36.190Z,9.25
2022-08-03T07:20:08.883Z,10.30
2022-08-03T07:22:37.305Z,8.20
2022-08-03T07:25:06.378Z,10.68
2022-08-03T07:27:34.708Z,9.55
2022-08-03T07:30:06.034Z,7.30
2022-08-03T07:32:34.909Z,9.02
2022-08-03T07:35:04.117Z,9.10
2022-08-03T07:37:54.319Z,7.72
2022-08-03T07:40:30.652Z,9.93
2022-08-03T07:43:00.870Z,10.77
2022-08-03T07:45:30.742Z,8.05
2022-08-03T07:47:58.873Z,7.40
2022-08-03T07:50:27.674Z,8.85
2022-08-03T07:52:56.436Z,7.47
2022-08-03T07:55:26.404Z,7.13
2022-08-03T07:58:10.579Z,6.93
2022-08-03T08:00:39.812Z,8.60
2022-08-03T08:08:05.994Z,7.40
2022-08-03T08:10:35.955Z,8.70
2022-08-03T08:13:05.129Z,8.75
2022-08-03T08:18:03.603Z,10.90
2022-08-03T08:20:36.565Z,9.10
2022-08-03T08:23:19.963Z,9.75
2022-08-03T08:25:58.221Z,11.05
2022-08-03T08:28:32.429Z,8.82
2022-08-03T08:31:02.787Z,17.08
2022-08-03T08:36:20.499Z,10.93
2022-08-03T08:38:49.372Z,11.40
2022-08-03T08:41:17.571Z,12.02
2022-08-03T08:43:45.695Z,10.23
2022-08-03T08:46:23.477Z,11.50
2022-08-03T08:48:54.386Z,10.65
2022-08-03T08:51:54.253Z,11.65
2022-08-03T08:54:18.606Z,11.50
2022-08-03T08:56:49.338Z,9.65
2022-08-03T08:59:18.816Z,11.90
2022-08-03T09:01:47.040Z,11.35
2022-08-03T09:04:15.643Z,9.50
2022-08-03T09:06:58.585Z,9.50
2022-08-03T09:10:12.312Z,10.77
2022-08-03T09:12:40.940Z,10.55
2022-08-03T09:15:27.544Z,10.35
2022-08-03T09:17:57.706Z,10.18
2022-08-03T09:23:44.701Z,10.00
2022-08-03T09:26:12.104Z,10.50
2022-08-03T09:29:00.788Z,10.88
2022-08-03T09:31:47.537Z,10.98
2022-08-03T09:34:17.602Z,11.75
2022-08-03T09:36:48.546Z,10.73
2022-08-03T09:39:41.067Z,11.40
2022-08-03T09:42:18.313Z,12.38
2022-08-03T09:44:48.652Z,12.52
2022-08-03T09:47:31.746Z,10.63
2022-08-03T09:50:02.514Z,10.48
2022-08-03T09:52:49.496Z,10.75
2022-08-03T09:56:34.095Z,8.02
2022-08-03T09:58:14.711Z,9.70
2022-08-03T10:01:04.353Z,9.35
2022-08-03T10:03:36.525Z,10.13
2022-08-03T10:06:28.792Z,10.80
2022-08-03T10:13:40.786Z,13.48
2022-08-03T10:18:53.088Z,13.25
2022-08-03T10:21:22.823Z,12.43
2022-08-03T10:23:53.910Z,13.00
2022-08-03T10:26:26.792Z,12.70
2022-08-03T10:28:58.356Z,14.50
2022-08-03T10:31:32.943Z,14.63
2022-08-03T10:34:02.520Z,13.05
2022-08-03T10:36:34.825Z,13.27
2022-08-03T10:39:03.980Z,12.65
2022-08-03T10:41:46.852Z,13.85
2022-08-03T10:44:21.779Z,12.38
2022-08-03T10:46:51.369Z,12.90
2022-08-03T10:49:33.768Z,12.65
2022-08-03T10:52:10.451Z,14.80
2022-08-03T10:55:09.904Z,14.10
2022-08-03T10:57:52.451Z,12.00
2022-08-03T11:00:30.428Z,11.57
2022-08-03T11:03:10.971Z,13.77
2022-08-03T11:05:42.335Z,12.05
2022-08-03T11:08:40.017Z,10.88
2022-08-03T11:11:20.271Z,11.50
2022-08-03T11:14:00.750Z,12.88
2022-08-03T11:16:51.096Z,11.98
2022-08-03T11:19:56.563Z,12.75
2022-08-03T11:22:54.834Z,12.85
2022-08-03T11:25:53.488Z,14.65
2022-08-03T11:28:28.873Z,11.90
2022-08-03T11:30:57.078Z,13.40
2022-08-03T11:33:32.420Z,13.93
2022-08-03T11:36:02.504Z,11.60
2022-08-03T11:38:30.792Z,12.68
2022-08-03T11:40:58.991Z,11.80
2022-08-03T11:43:35.458Z,11.73
2022-08-03T11:46:13.106Z,12.40
2022-08-03T11:48:48.319Z,13.88
2022-08-03T11:51:28.015Z,10.90
2022-08-03T11:53:59.933Z,10.13
2022-08-03T11:56:29.424Z,11.57
2022-08-03T11:59:19.989Z,11.60
2022-08-03T12:01:47.582Z,12.88
2022-08-03T12:04:16.670Z,11.13
2022-08-03T12:06:59.641Z,11.40
2022-08-03T12:09:28.208Z,11.90
2022-08-03T12:12:00.561Z,10.52
2022-08-03T12:14:49.872Z,9.32
2022-08-03T12:17:19.427Z,8.63
2022-08-03T12:22:17.300Z,8.07
2022-08-03T12:24:47.590Z,8.65
2022-08-03T12:27:27.189Z,9.07
2022-08-03T12:29:58.561Z,8.52
2022-08-03T12:32:30.317Z,9.18
2022-08-03T12:35:01.906Z,8.57
2022-08-03T12:37:33.393Z,9.45
2022-08-03T12:40:09.999Z,10.13
2022-08-03T12:42:41.315Z,12.38
2022-08-03T12:45:27.845Z,13.85
2022-08-03T12:47:59.110Z,10.98
2022-08-03T12:50:33.047Z,11.30
2022-08-03T12:53:05.069Z,11.55
2022-08-03T12:55:56.486Z,11.68
2022-08-03T12:58:34.664Z,15.02
2022-08-03T13:01:09.538Z,9.82
2022-08-03T13:03:53.020Z,9.32
2022-08-03T13:06:24.619Z,8.07
2022-08-03T13:09:08.015Z,7.68
2022-08-03T13:11:57.355Z,7.13
2022-08-03T13:14:31.342Z,9.52
2022-08-03T13:17:04.535Z,8.35
2022-08-03T13:19:35.299Z,11.10
2022-08-03T13:22:21.030Z,6.88
2022-08-03T13:24:52.835Z,7.30
2022-08-03T13:28:03.486Z,9.05
2022-08-03T13:30:10.785Z,9.13
2022-08-03T13:32:39.141Z,9.32
2022-08-03T13:35:07.987Z,10.88
2022-08-03T13:37:37.587Z,7.85
2022-08-03T13:40:08.487Z,8.23
2022-08-03T13:42:43.120Z,11.40
2022-08-03T13:45:11.863Z,11.20
2022-08-03T13:47:40.080Z,10.10
2022-08-03T13:50:09.299Z,7.97
2022-08-03T13:52:37.481Z,9.38
2022-08-03T13:55:07.274Z,8.80
2022-08-03T13:58:04.188Z,8.32
2022-08-03T14:00:29.323Z,8.80
2022-08-03T14:03:15.318Z,10.40
2022-08-03T14:05:44.680Z,9.43
2022-08-03T14:08:13.698Z,9.07
2022-08-03T14:10:44.355Z,8.95
2022-08-03T14:13:17.509Z,7.82
2022-08-03T14:15:50.850Z,7.60
2022-08-03T14:18:28.855Z,6.82
2022-08-03T14:21:06.712Z,7.82
2022-08-03T14:23:38.088Z,8.00
2022-08-03T14:26:08.453Z,6.57
2022-08-03T14:28:37.694Z,7.85
2022-08-03T14:31:08.526Z,6.97
2022-08-03T14:33:55.222Z,6.45
2022-08-03T14:36:23.610Z,7.00
2022-08-03T14:41:20.959Z,8.23
2022-08-03T14:44:01.483Z,7.30
2022-08-03T14:46:32.597Z,8.88
2022-08-03T14:50:28.958Z,9.57
2022-08-03T14:51:53.352Z,8.60
2022-08-03T14:54:23.594Z,9.13
2022-08-03T14:56:52.775Z,11.13
2022-08-03T14:59:21.334Z,9.13
2022-08-03T15:02:04.485Z,10.65
2022-08-03T15:04:38.029Z,8.48
2022-08-03T15:07:07.016Z,10.27
2022-08-03T15:09:36.032Z,6.90
2022-08-03T15:12:09.411Z,9.43
2022-08-03T15:14:38.437Z,9.30
2022-08-03T15:17:07.948Z,9.15
2022-08-03T15:20:00.723Z,11.20
2022-08-03T15:22:34.737Z,10.07
2022-08-03T15:26:06.548Z,9.95
2022-08-03T15:28:03.906Z,9.70
2022-08-03T15:30:36.632Z,9.30
2022-08-03T15:33:05.963Z,12.55
2022-08-03T15:35:34.989Z,10.93
2022-08-03T15:38:08.725Z,10.43
2022-08-03T15:40:38.277Z,12.05
2022-08-03T15:43:06.951Z,14.15
2022-08-03T15:45:36.780Z,13.70
2022-08-03T15:48:07.205Z,12.23
2022-08-03T15:50:35.854Z,12.15
2022-08-03T15:53:04.918Z,12.43
2022-08-03T15:55:34.115Z,10.27
2022-08-03T15:59:03.987Z,10.68
2022-08-03T16:00:51.244Z,11.57
2022-08-03T16:03:19.764Z,10.60
2022-08-03T16:05:47.906Z,11.63
2022-08-03T16:08:16.886Z,12.32
2022-08-03T16:10:47.546Z,10.88
2022-08-03T16:13:17.351Z,12.60
2022-08-03T16:15:45.610Z,10.90
2022-08-03T16:18:14.449Z,12.35
2022-08-03T16:20:43.257Z,12.35
2022-08-03T16:23:12.786Z,12.82
2022-08-03T16:25:49.273Z,12.20
2022-08-03T16:28:19.291Z,12.68
2022-08-03T16:33:17.076Z,14.68
2022-08-03T16:35:47.335Z,11.55
2022-08-03T16:38:19.284Z,13.38
2022-08-03T16:40:52.344Z,11.35
2022-08-03T16:43:25.543Z,15.25
2022-08-03T16:45:54.501Z,12.10
2022-08-03T16:48:22.747Z,14.18
2022-08-03T16:50:51.096Z,12.90
2022-08-03T16:53:33.627Z,11.85
2022-08-03T16:56:11.030Z,13.48
2022-08-03T16:58:41.518Z,13.23
2022-08-03T17:01:21.754Z,12.80
2022-08-03T17:04:02.952Z,12.02
2022-08-03T17:06:44.656Z,13.70
2022-08-03T17:11:49.352Z,12.10
2022-08-03T17:14:28.262Z,13.23
2022-08-03T17:17:01.738Z,12.25
2022-08-03T17:19:32.524Z,12.50
2022-08-03T17:22:09.863Z,13.43
2022-08-03T17:24:43.609Z,13.38
2022-08-03T17:27:23.169Z,12.57
2022-08-03T17:30:10.110Z,11.75
2022-08-03T17:32:56.526Z,12.75
2022-08-03T17:35:34.489Z,13.50
2022-08-03T17:38:11.853Z,16.17
2022-08-03T17:40:49.942Z,12.55
2022-08-03T17:44:13.018Z,12.73
2022-08-03T17:48:58.467Z,13.23
2022-08-03T17:51:32.437Z,14.45
2022-08-03T17:54:18.337Z,12.82
2022-08-03T17:57:22.564Z,13.05
2022-08-03T18:00:27.641Z,13.68
2022-08-03T18:03:20.672Z,14.32
2022-08-03T18:06:11.605Z,13.85
2022-08-03T18:08:50.869Z,14.75
2022-08-03T18:11:23.245Z,15.82
2022-08-03T18:13:58.164Z,14.45
2022-08-03T18:16:37.917Z,13.48
2022-08-03T18:19:09.407Z,12.73
2022-08-03T18:22:02.782Z,14.35
2022-08-03T18:24:32.984Z,16.35
2022-08-03T18:27:04.117Z,14.27
2022-08-03T18:29:37.437Z,13.27
2022-08-03T18:32:13.567Z,15.35
2022-08-03T18:34:53.133Z,13.63
2022-08-03T18:37:26.245Z,15.77
2022-08-03T18:39:58.503Z,16.23
2022-08-03T18:42:28.549Z,12.90
2022-08-03T18:45:14.788Z,14.48
2022-08-03T18:48:17.452Z,13.27
2022-08-03T18:51:06.809Z,14.43
2022-08-03T18:54:01.911Z,17.55
2022-08-03T18:56:35.235Z,14.30
2022-08-03T18:59:30.400Z,15.75
2022-08-03T19:02:09.148Z,15.13
2022-08-03T19:04:48.708Z,15.93
2022-08-03T19:07:26.769Z,17.92
2022-08-03T19:10:00.253Z,15.40
2022-08-03T19:12:46.328Z,16.50
2022-08-03T19:15:15.584Z,16.98
2022-08-03T19:17:53.797Z,14.80
2022-08-03T19:20:24.974Z,15.27
2022-08-03T19:22:57.080Z,15.50
2022-08-03T19:25:34.406Z,16.98
2022-08-03T19:28:05.800Z,14.82
2022-08-03T19:30:38.895Z,15.98
2022-08-03T19:33:16.553Z,16.60
2022-08-03T19:35:54.749Z,16.17
2022-08-03T19:38:28.285Z,16.38
2022-08-03T19:41:01.235Z,17.70
2022-08-03T19:43:58.961Z,15.23
2022-08-03T19:46:31.654Z,15.00
2022-08-03T19:49:14.451Z,16.73
2022-08-03T19:52:00.676Z,15.23
2022-08-03T19:54:53.626Z,15.27
2022-08-03T19:57:25.547Z,14.35
2022-08-03T19:59:56.942Z,14.13
2022-08-03T20:02:27.973Z,16.92
2022-08-03T20:05:00.538Z,15.02
2022-08-03T20:07:32.298Z,14.20
2022-08-03T20:10:04.705Z,14.88
2022-08-03T20:12:38.752Z,15.55
2022-08-03T20:15:09.425Z,15.32
2022-08-03T20:17:56.417Z,14.73
2022-08-03T20:20:32.958Z,17.20
2022-08-03T20:23:07.229Z,15.20
2022-08-03T20:25:58.878Z,15.95
2022-08-03T20:28:32.135Z,15.82
2022-08-03T20:33:49.474Z,15.15
2022-08-03T20:36:19.078Z,14.95
2022-08-03T20:38:48.255Z,14.60
2022-08-03T20:41:18.130Z,13.73
2022-08-03T20:43:51.004Z,14.25
2022-08-03T20:46:30.121Z,15.23
2022-08-03T20:49:04.000Z,14.77
2022-08-03T20:51:50.007Z,14.82
2022-08-03T20:54:30.714Z,14.27
2022-08-03T20:57:03.877Z,15.63
2022-08-03T20:59:50.562Z,16.50
2022-08-03T21:02:30.496Z,15.68
2022-08-03T21:05:03.794Z,15.63
2022-08-03T21:08:03.726Z,14.82
2022-08-03T21:10:35.804Z,14.80
2022-08-03T21:13:04.888Z,12.98
2022-08-03T21:13:14.320Z,14.57
2022-08-03T21:13:24.027Z,15.60
2022-08-03T21:16:03.158Z,15.00
2022-08-03T21:18:51.736Z,16.55
2022-08-03T21:21:23.868Z,17.23
2022-08-03T21:23:56.338Z,14.82
2022-08-03T21:26:27.512Z,14.70
2022-08-03T21:28:57.174Z,14.80
2022-08-03T21:31:26.782Z,14.88
2022-08-03T21:33:58.249Z,15.35
2022-08-03T21:36:28.787Z,14.70
2022-08-03T21:38:58.359Z,14.98
2022-08-03T21:41:29.041Z,16.00
2022-08-03T21:43:58.662Z,15.00
2022-08-03T21:46:35.512Z,15.32
2022-08-03T21:50:02.589Z,15.13
2022-08-03T21:51:59.901Z,15.05
2022-08-03T21:54:36.849Z,15.55
2022-08-03T21:57:14.519Z,16.25
2022-08-03T21:59:52.549Z,16.30
2022-08-03T22:02:25.548Z,15.30
2022-08-03T22:04:55.476Z,16.10
2022-08-03T22:07:28.541Z,16.02
2022-08-03T22:09:58.294Z,17.45
2022-08-03T22:12:29.589Z,17.55
2022-08-03T22:15:01.943Z,16.13
2022-08-03T22:20:23.019Z,17.25
2022-08-03T22:22:56.281Z,18.08
2022-08-03T22:25:31.352Z,17.45
2022-08-03T22:28:03.716Z,17.75
2022-08-03T22:30:33.444Z,16.92
2022-08-03T22:33:05.736Z,19.00
2022-08-03T22:35:47.780Z,18.05
2022-08-03T22:38:19.848Z,17.88
2022-08-03T22:40:51.307Z,17.48
2022-08-03T22:43:24.527Z,17.15
2022-08-03T22:46:08.970Z,18.05
2022-08-03T22:48:41.763Z,17.15
2022-08-03T22:51:10.946Z,17.00
2022-08-03T22:53:40.842Z,20.63
2022-08-03T22:56:09.228Z,16.98
2022-08-03T22:58:37.628Z,17.20
2022-08-03T23:01:12.029Z,17.48
2022-08-03T23:04:01.040Z,17.02
2022-08-03T23:06:36.629Z,18.50
2022-08-03T23:09:07.299Z,17.65
2022-08-03T23:11:45.199Z,18.35
2022-08-03T23:14:16.352Z,18.30
2022-08-03T23:16:46.309Z,17.67
2022-08-03T23:19:25.584Z,17.83
2022-08-03T23:22:03.298Z,17.13
2022-08-03T23:24:38.933Z,17.58
2022-08-03T23:27:10.772Z,17.30
2022-08-03T23:29:42.703Z,17.77
2022-08-03T23:32:13.416Z,16.88
2022-08-03T23:35:02.113Z,18.23
2022-08-03T23:37:33.600Z,19.23
2022-08-03T23:40:26.718Z,18.83
2022-08-03T23:42:56.798Z,21.27
2022-08-03T23:45:27.790Z,19.35
2022-08-03T23:47:56.412Z,18.95
2022-08-03T23:50:24.989Z,18.25
2022-08-03T23:53:03.267Z,18.50
2022-08-03T23:55:47.863Z,17.65
2022-08-03T23:58:22.203Z,19.33
